createdAt,value
2019-03-27T00:00:48.179Z,10.43
2019-03-27T00:03:17.034Z,12.30
2019-03-27T00:05:45.441Z,11.70
2019-03-27T00:08:14.266Z,12.70
2019-03-27T00:10:43.101Z,12.67
2019-03-27T00:13:11.513Z,11.70
2019-03-27T00:15:39.915Z,11.23
2019-03-27T00:18:08.370Z,11.90
2019-03-27T00:20:36.780Z,13.00
2019-03-27T00:23:05.173Z,13.40
2019-03-27T00:25:33.622Z,11.43
2019-03-27T00:28:02.037Z,11.67
2019-03-27T00:30:30.449Z,12.30
2019-03-27T00:32:59.256Z,14.43
2019-03-27T00:35:27.669Z,12.13
2019-03-27T00:37:56.082Z,13.10
2019-03-27T00:40:24.598Z,13.43
2019-03-27T00:42:53.269Z,13.43
2019-03-27T00:45:26.939Z,12.17
2019-03-27T00:47:51.970Z,10.80
2019-03-27T00:50:20.398Z,12.53
2019-03-27T00:52:48.807Z,12.53
2019-03-27T00:55:17.275Z,11.70
2019-03-27T00:57:45.975Z,11.63
2019-03-27T01:00:26.586Z,11.30
2019-03-27T01:02:54.998Z,11.30
2019-03-27T01:05:23.694Z,11.60
2019-03-27T01:07:52.129Z,13.83
2019-03-27T01:10:21.282Z,11.50
2019-03-27T01:12:49.733Z,12.00
2019-03-27T01:15:18.203Z,12.97
2019-03-27T01:17:46.930Z,12.23
2019-03-27T01:20:15.931Z,13.03
2019-03-27T01:22:44.553Z,12.80
2019-03-27T01:25:14.076Z,13.20
2019-03-27T01:27:42.497Z,12.87
2019-03-27T01:30:11.820Z,13.57
2019-03-27T01:32:40.228Z,11.77
2019-03-27T01:35:08.717Z,13.60
2019-03-27T01:37:37.244Z,12.47
2019-03-27T01:40:06.379Z,12.87
2019-03-27T01:42:34.791Z,13.17
2019-03-27T01:45:04.735Z,11.93
2019-03-27T01:47:33.155Z,13.57
2019-03-27T01:50:02.211Z,13.20
2019-03-27T01:52:30.735Z,12.37
2019-03-27T01:54:59.140Z,14.07
2019-03-27T01:57:27.814Z,12.27
2019-03-27T01:59:56.622Z,12.73
2019-03-27T02:02:25.308Z,14.10
2019-03-27T02:04:53.713Z,13.50
2019-03-27T02:07:22.254Z,12.40
2019-03-27T02:09:50.955Z,13.57
2019-03-27T02:12:20.054Z,12.27
2019-03-27T02:14:48.743Z,13.93
2019-03-27T02:17:17.636Z,12.53
2019-03-27T02:19:46.055Z,12.33
2019-03-27T02:22:14.499Z,12.77
2019-03-27T02:24:42.920Z,11.03
2019-03-27T02:27:11.334Z,14.67
2019-03-27T02:29:39.759Z,12.10
2019-03-27T02:32:08.177Z,14.90
2019-03-27T02:34:36.658Z,11.87
2019-03-27T02:37:05.147Z,12.97
2019-03-27T02:39:33.559Z,12.10
2019-03-27T02:42:02.413Z,10.93
2019-03-27T02:44:31.031Z,13.30
2019-03-27T02:46:59.778Z,12.83
2019-03-27T02:49:28.206Z,12.33
2019-03-27T02:51:56.649Z,12.93
2019-03-27T02:54:25.340Z,12.30
2019-03-27T02:56:53.832Z,15.20
2019-03-27T02:59:22.609Z,13.90
2019-03-27T03:01:51.306Z,11.53
2019-03-27T03:04:20.199Z,13.30
2019-03-27T03:06:48.833Z,12.70
2019-03-27T03:09:17.220Z,13.43
2019-03-27T03:11:45.631Z,14.23
2019-03-27T03:14:14.121Z,13.23
2019-03-27T03:16:43.476Z,13.57
2019-03-27T03:19:11.962Z,12.73
2019-03-27T03:21:40.673Z,13.67
2019-03-27T03:24:09.226Z,11.70
2019-03-27T03:26:37.627Z,12.50
2019-03-27T03:29:06.086Z,13.67
2019-03-27T03:31:34.521Z,13.20
2019-03-27T03:34:02.933Z,13.50
2019-03-27T03:36:31.395Z,12.23
2019-03-27T03:38:59.811Z,12.40
2019-03-27T03:41:28.519Z,11.77
2019-03-27T03:43:57.325Z,11.17
2019-03-27T03:46:25.723Z,12.30
2019-03-27T03:48:54.138Z,12.23
2019-03-27T03:51:22.946Z,11.40
2019-03-27T03:53:51.351Z,13.17
2019-03-27T03:56:21.634Z,12.80
2019-03-27T03:58:50.554Z,12.00
2019-03-27T04:01:20.011Z,13.57
2019-03-27T04:03:49.065Z,12.93
2019-03-27T04:06:17.482Z,12.77
2019-03-27T04:08:45.903Z,12.03
2019-03-27T04:11:14.630Z,13.27
2019-03-27T04:13:43.397Z,14.43
2019-03-27T04:16:12.356Z,11.97
2019-03-27T04:18:40.795Z,14.00
2019-03-27T04:21:09.588Z,12.90
2019-03-27T04:23:38.007Z,13.30
2019-03-27T04:26:10.306Z,13.27
2019-03-27T04:28:36.595Z,11.87
2019-03-27T04:31:05.025Z,13.87
2019-03-27T04:33:33.674Z,14.27
2019-03-27T04:36:02.442Z,16.43
2019-03-27T04:38:30.864Z,14.03
2019-03-27T04:40:59.277Z,13.30
2019-03-27T04:43:27.744Z,14.10
2019-03-27T04:45:56.153Z,13.63
2019-03-27T04:48:24.853Z,12.90
2019-03-27T04:50:53.305Z,12.30
2019-03-27T04:53:22.346Z,14.20
2019-03-27T04:55:50.995Z,13.17
2019-03-27T04:58:19.729Z,15.30
2019-03-27T05:00:48.133Z,14.60
2019-03-27T05:03:16.789Z,13.57
2019-03-27T05:05:45.777Z,14.07
2019-03-27T05:08:14.492Z,14.97
2019-03-27T05:10:43.196Z,13.23
2019-03-27T05:13:11.636Z,14.40
2019-03-27T05:15:40.343Z,13.47
2019-03-27T05:18:08.786Z,13.97
2019-03-27T05:20:37.556Z,12.93
2019-03-27T05:23:05.957Z,14.77
2019-03-27T05:25:34.610Z,12.07
2019-03-27T05:28:03.068Z,15.60
2019-03-27T05:30:31.596Z,13.83
2019-03-27T05:33:00.009Z,12.57
2019-03-27T05:35:28.469Z,13.77
2019-03-27T05:37:56.882Z,14.70
2019-03-27T05:40:25.288Z,13.90
2019-03-27T05:43:00.629Z,13.30
2019-03-27T05:45:24.936Z,14.60
2019-03-27T05:47:59.385Z,13.27
2019-03-27T05:50:23.803Z,14.53
2019-03-27T05:52:52.232Z,12.13
2019-03-27T05:55:20.702Z,13.93
2019-03-27T05:57:49.132Z,13.97
2019-03-27T06:00:18.617Z,13.27
2019-03-27T06:02:47.029Z,14.30
2019-03-27T06:05:15.729Z,13.77
2019-03-27T06:07:44.213Z,14.77
2019-03-27T06:10:16.144Z,13.90
2019-03-27T06:12:43.052Z,13.87
2019-03-27T06:15:11.600Z,13.70
2019-03-27T06:17:40.259Z,13.57
2019-03-27T06:20:09.218Z,14.53
2019-03-27T06:22:37.645Z,14.13
2019-03-27T06:25:08.171Z,14.50
2019-03-27T06:27:36.734Z,14.13
2019-03-27T06:30:07.288Z,12.87
2019-03-27T06:32:36.794Z,16.33
2019-03-27T06:35:07.197Z,13.83
2019-03-27T06:37:35.586Z,14.90
2019-03-27T06:40:05.789Z,14.63
2019-03-27T06:42:34.806Z,14.60
2019-03-27T06:45:03.882Z,15.27
2019-03-27T06:47:32.289Z,14.40
2019-03-27T06:50:00.737Z,14.03
2019-03-27T06:52:29.492Z,15.80
2019-03-27T06:54:57.979Z,15.60
2019-03-27T06:57:26.770Z,17.10
2019-03-27T06:59:55.785Z,16.30
2019-03-27T07:02:28.492Z,16.87
2019-03-27T07:04:54.592Z,16.23
2019-03-27T07:07:23.465Z,14.80
2019-03-27T07:09:51.918Z,17.63
2019-03-27T07:12:21.631Z,17.20
2019-03-27T07:14:50.474Z,17.70
2019-03-27T07:17:18.909Z,16.70
2019-03-27T07:19:47.370Z,19.60
2019-03-27T07:22:16.927Z,17.73
2019-03-27T07:24:45.629Z,18.23
2019-03-27T07:27:14.328Z,19.20
2019-03-27T07:29:42.755Z,18.20
2019-03-27T07:32:11.168Z,16.50
2019-03-27T07:34:39.937Z,18.47
2019-03-27T07:37:08.671Z,19.10
2019-03-27T07:39:37.441Z,17.20
2019-03-27T07:42:05.896Z,17.50
2019-03-27T07:44:34.572Z,21.50
2019-03-27T07:47:03.554Z,18.23
2019-03-27T07:49:31.969Z,19.60
2019-03-27T07:52:00.385Z,16.87
2019-03-27T07:54:29.053Z,19.40
2019-03-27T07:56:58.007Z,17.23
2019-03-27T07:59:26.406Z,20.47
2019-03-27T08:01:54.826Z,19.50
2019-03-27T08:04:23.275Z,16.67
2019-03-27T08:06:51.820Z,16.63
2019-03-27T08:09:22.980Z,16.20
2019-03-27T08:11:50.488Z,15.03
2019-03-27T08:14:19.350Z,14.37
2019-03-27T08:16:48.305Z,16.63
2019-03-27T08:19:17.675Z,17.20
2019-03-27T08:21:46.539Z,15.33
2019-03-27T08:24:15.426Z,14.57
2019-03-27T08:26:43.930Z,13.70
2019-03-27T08:29:12.631Z,13.20
2019-03-27T08:31:41.119Z,12.80
2019-03-27T08:34:09.551Z,11.30
2019-03-27T08:36:37.965Z,11.33
2019-03-27T08:39:08.011Z,11.40
2019-03-27T08:41:37.210Z,10.57
2019-03-27T08:44:05.790Z,12.70
2019-03-27T08:46:34.211Z,11.70
2019-03-27T08:49:02.670Z,10.47
2019-03-27T08:51:31.095Z,9.90
2019-03-27T08:53:59.830Z,11.30
2019-03-27T08:56:28.269Z,9.80
2019-03-27T08:58:56.950Z,10.80
2019-03-27T09:01:25.365Z,10.10
2019-03-27T09:03:54.453Z,9.23
2019-03-27T09:06:33.145Z,9.83
2019-03-27T09:08:55.427Z,10.53
2019-03-27T09:11:24.798Z,10.23
2019-03-27T09:13:53.251Z,10.47
2019-03-27T09:16:21.661Z,9.90
2019-03-27T09:18:50.398Z,11.50
2019-03-27T09:21:18.898Z,11.50
2019-03-27T09:23:47.296Z,10.20
2019-03-27T09:26:17.130Z,9.57
2019-03-27T09:28:45.520Z,8.93
2019-03-27T09:31:14.249Z,8.97
2019-03-27T09:33:42.758Z,9.70
2019-03-27T09:36:11.374Z,7.60
2019-03-27T09:38:39.924Z,6.83
2019-03-27T09:41:08.357Z,8.93
2019-03-27T09:43:37.087Z,7.60
2019-03-27T09:46:05.501Z,8.70
2019-03-27T09:48:33.982Z,8.57
2019-03-27T09:51:02.753Z,9.10
2019-03-27T09:53:31.165Z,8.77
2019-03-27T09:55:59.888Z,8.20
2019-03-27T09:58:28.690Z,7.27
2019-03-27T10:00:57.673Z,7.57
2019-03-27T10:03:26.097Z,5.50
2019-03-27T10:05:54.565Z,5.67
2019-03-27T10:08:22.982Z,5.30
2019-03-27T10:10:52.686Z,5.77
2019-03-27T10:13:21.578Z,5.87
2019-03-27T10:15:49.997Z,5.77
2019-03-27T10:18:18.426Z,6.33
2019-03-27T10:20:46.912Z,6.10
2019-03-27T10:23:15.335Z,5.47
2019-03-27T10:25:43.762Z,5.40
2019-03-27T10:28:12.804Z,5.27
2019-03-27T10:30:41.213Z,5.97
2019-03-27T10:33:09.667Z,6.43
2019-03-27T10:35:38.358Z,5.50
2019-03-27T10:38:06.843Z,5.40
2019-03-27T10:40:35.397Z,6.90
2019-03-27T10:43:03.816Z,6.30
2019-03-27T10:45:32.269Z,6.20
2019-03-27T10:48:00.704Z,6.47
2019-03-27T10:50:29.479Z,6.30
2019-03-27T10:52:58.576Z,6.10
2019-03-27T10:55:27.461Z,6.63
2019-03-27T10:57:55.902Z,6.40
2019-03-27T11:00:24.638Z,5.70
2019-03-27T11:02:53.095Z,6.50
2019-03-27T11:05:21.822Z,5.93
2019-03-27T11:07:50.233Z,5.60
2019-03-27T11:10:18.689Z,6.00
2019-03-27T11:12:47.107Z,6.30
2019-03-27T11:15:16.358Z,6.17
2019-03-27T11:17:45.162Z,6.00
2019-03-27T11:20:14.331Z,5.70
2019-03-27T11:22:42.749Z,6.50
2019-03-27T11:25:11.327Z,6.10
2019-03-27T11:27:39.733Z,6.20
2019-03-27T11:30:09.831Z,5.40
2019-03-27T11:32:38.623Z,5.80
2019-03-27T11:35:08.138Z,6.20
2019-03-27T11:37:36.533Z,7.47
2019-03-27T11:40:06.795Z,6.00
2019-03-27T11:42:35.216Z,6.57
2019-03-27T11:45:06.167Z,5.70
2019-03-27T11:47:34.631Z,6.60
2019-03-27T11:50:03.216Z,6.47
2019-03-27T11:52:31.633Z,5.93
2019-03-27T11:55:00.349Z,8.50
2019-03-27T11:57:28.899Z,5.47
2019-03-27T11:59:57.306Z,7.57
2019-03-27T12:02:25.747Z,6.30
2019-03-27T12:04:54.147Z,6.40
2019-03-27T12:07:23.089Z,5.63
2019-03-27T12:09:51.863Z,6.37
2019-03-27T12:12:20.275Z,6.20
2019-03-27T12:14:48.675Z,7.60
2019-03-27T12:17:17.113Z,6.50
2019-03-27T12:19:45.514Z,7.10
2019-03-27T12:22:14.573Z,6.90
2019-03-27T12:24:43.409Z,6.83
2019-03-27T12:27:11.920Z,7.27
2019-03-27T12:29:40.869Z,7.13
2019-03-27T12:32:09.722Z,6.77
2019-03-27T12:34:38.150Z,5.63
2019-03-27T12:37:06.588Z,6.50
2019-03-27T12:39:35.360Z,6.90
2019-03-27T12:42:03.768Z,6.90
2019-03-27T12:44:33.232Z,5.43
2019-03-27T12:47:01.671Z,6.33
2019-03-27T12:49:30.500Z,7.30
2019-03-27T12:51:58.902Z,6.47
2019-03-27T12:54:27.736Z,7.10
2019-03-27T12:56:56.469Z,6.73
2019-03-27T12:59:24.881Z,6.20
2019-03-27T13:01:53.315Z,6.20
2019-03-27T13:04:21.750Z,6.30
2019-03-27T13:06:50.154Z,6.63
2019-03-27T13:09:18.553Z,6.77
2019-03-27T13:11:47.375Z,5.80
2019-03-27T13:14:15.781Z,6.17
2019-03-27T13:16:44.678Z,6.23
2019-03-27T13:19:13.123Z,6.40
2019-03-27T13:21:41.833Z,7.20
2019-03-27T13:24:10.642Z,6.00
2019-03-27T13:26:39.059Z,7.47
2019-03-27T13:29:07.801Z,6.47
2019-03-27T13:31:36.242Z,5.87
2019-03-27T13:34:04.904Z,6.23
2019-03-27T13:36:35.347Z,7.30
2019-03-27T13:39:05.958Z,7.17
2019-03-27T13:41:34.581Z,6.50
2019-03-27T13:44:03.031Z,6.57
2019-03-27T13:46:32.430Z,6.90
2019-03-27T13:49:00.850Z,6.67
2019-03-27T13:51:39.828Z,6.90
2019-03-27T13:53:59.493Z,6.00
2019-03-27T13:56:28.195Z,6.97
2019-03-27T13:58:57.005Z,6.40
2019-03-27T14:01:25.909Z,7.53
2019-03-27T14:03:54.861Z,6.00
2019-03-27T14:06:24.243Z,7.00
2019-03-27T14:08:52.693Z,6.60
2019-03-27T14:11:21.155Z,7.07
2019-03-27T14:13:49.570Z,7.00
2019-03-27T14:16:18.060Z,6.37
2019-03-27T14:18:48.991Z,6.73
2019-03-27T14:21:16.936Z,7.10
2019-03-27T14:23:45.668Z,6.73
2019-03-27T14:26:14.081Z,6.60
2019-03-27T14:28:42.586Z,7.77
2019-03-27T14:31:11.116Z,7.00
2019-03-27T14:33:39.526Z,7.27
2019-03-27T14:36:08.256Z,7.10
2019-03-27T14:38:36.805Z,8.67
2019-03-27T14:41:05.499Z,6.80
2019-03-27T14:43:33.911Z,8.00
2019-03-27T14:46:02.475Z,7.30
2019-03-27T14:48:32.270Z,7.47
2019-03-27T14:51:01.010Z,7.00
2019-03-27T14:53:29.804Z,7.20
2019-03-27T14:55:58.217Z,6.93
2019-03-27T14:58:26.868Z,7.87
2019-03-27T15:00:55.722Z,7.57
2019-03-27T15:03:24.134Z,7.87
2019-03-27T15:05:53.026Z,7.03
2019-03-27T15:08:21.834Z,8.03
2019-03-27T15:10:51.349Z,7.97
2019-03-27T15:13:20.043Z,8.17
2019-03-27T15:15:48.478Z,7.57
2019-03-27T15:18:17.200Z,7.33
2019-03-27T15:20:45.617Z,7.67
2019-03-27T15:23:15.036Z,8.03
2019-03-27T15:25:43.445Z,7.23
2019-03-27T15:28:11.898Z,7.33
2019-03-27T15:30:40.325Z,7.63
2019-03-27T15:33:09.032Z,8.27
2019-03-27T15:35:37.441Z,9.20
2019-03-27T15:38:06.764Z,10.50
2019-03-27T15:40:40.446Z,8.47
2019-03-27T15:43:08.956Z,9.37
2019-03-27T15:45:37.405Z,8.53
2019-03-27T15:48:05.999Z,9.60
2019-03-27T15:50:34.457Z,7.83
2019-03-27T15:53:02.936Z,8.33
2019-03-27T15:55:31.344Z,9.07
2019-03-27T15:57:59.850Z,8.67
2019-03-27T16:00:28.297Z,9.03
2019-03-27T16:02:56.703Z,8.13
2019-03-27T16:05:26.423Z,9.53
2019-03-27T16:07:54.864Z,9.90
2019-03-27T16:10:23.708Z,9.80
2019-03-27T16:12:52.390Z,8.40
2019-03-27T16:15:23.362Z,8.57
2019-03-27T16:17:52.016Z,9.20
2019-03-27T16:20:20.429Z,9.50
2019-03-27T16:22:50.813Z,8.07
2019-03-27T16:25:19.233Z,7.90
2019-03-27T16:27:47.645Z,8.10
2019-03-27T16:30:17.300Z,8.30
2019-03-27T16:32:45.925Z,9.27
2019-03-27T16:35:15.187Z,9.00
2019-03-27T16:37:43.719Z,8.10
2019-03-27T16:40:13.450Z,8.60
2019-03-27T16:42:42.036Z,10.00
2019-03-27T16:45:14.318Z,8.97
2019-03-27T16:47:43.008Z,8.90
2019-03-27T16:50:11.748Z,9.30
2019-03-27T16:52:40.210Z,7.83
2019-03-27T16:55:10.156Z,9.63
2019-03-27T16:57:38.588Z,8.97
2019-03-27T17:00:08.650Z,9.20
2019-03-27T17:02:37.076Z,9.50
2019-03-27T17:05:07.942Z,8.83
2019-03-27T17:07:36.626Z,10.20
2019-03-27T17:10:06.807Z,11.40
2019-03-27T17:12:35.227Z,10.63
2019-03-27T17:15:04.949Z,11.57
2019-03-27T17:17:33.359Z,12.80
2019-03-27T17:20:02.195Z,13.03
2019-03-27T17:22:30.677Z,12.40
2019-03-27T17:24:59.102Z,13.20
2019-03-27T17:27:27.538Z,13.23
2019-03-27T17:29:56.089Z,13.10
2019-03-27T17:32:24.509Z,14.00
2019-03-27T17:34:52.894Z,13.90
2019-03-27T17:37:21.311Z,12.97
2019-03-27T17:39:50.045Z,13.97
2019-03-27T17:42:19.237Z,13.70
2019-03-27T17:44:47.747Z,13.90
2019-03-27T17:47:16.405Z,13.53
2019-03-27T17:49:44.866Z,14.20
2019-03-27T17:52:13.321Z,14.03
2019-03-27T17:54:41.729Z,13.83
2019-03-27T17:57:10.494Z,14.30
2019-03-27T17:59:38.917Z,14.60
2019-03-27T18:02:07.554Z,13.53
2019-03-27T18:04:35.967Z,14.10
2019-03-27T18:07:05.238Z,13.60
2019-03-27T18:09:33.905Z,13.50
2019-03-27T18:12:02.309Z,13.70
2019-03-27T18:14:30.843Z,12.30
2019-03-27T18:16:59.258Z,13.47
2019-03-27T18:19:27.668Z,14.90
2019-03-27T18:22:07.208Z,15.63
2019-03-27T18:24:27.457Z,15.60
2019-03-27T18:26:55.838Z,16.80
2019-03-27T18:29:24.277Z,15.70
2019-03-27T18:31:52.689Z,17.63
2019-03-27T18:34:21.753Z,15.53
2019-03-27T18:36:50.323Z,16.67
2019-03-27T18:39:18.731Z,16.27
2019-03-27T18:41:47.131Z,17.07
2019-03-27T18:44:15.910Z,15.53
2019-03-27T18:46:44.576Z,15.80
2019-03-27T18:49:12.963Z,16.70
2019-03-27T18:51:41.572Z,15.03
2019-03-27T18:54:10.047Z,15.90
2019-03-27T18:56:38.622Z,14.47
2019-03-27T18:59:07.048Z,15.67
2019-03-27T19:01:36.805Z,14.70
2019-03-27T19:04:05.276Z,17.30
2019-03-27T19:06:33.988Z,16.97
2019-03-27T19:09:02.396Z,15.90
2019-03-27T19:11:30.807Z,16.20
2019-03-27T19:13:59.267Z,16.50
2019-03-27T19:16:28.665Z,16.57
2019-03-27T19:18:57.068Z,16.07
2019-03-27T19:21:25.809Z,18.10
2019-03-27T19:23:54.232Z,17.70
2019-03-27T19:26:22.907Z,16.33
2019-03-27T19:28:53.909Z,15.40
2019-03-27T19:31:22.771Z,18.10
2019-03-27T19:33:51.521Z,17.43
2019-03-27T19:36:20.530Z,17.40
2019-03-27T19:38:49.216Z,16.70
2019-03-27T19:41:17.679Z,16.10
2019-03-27T19:43:46.119Z,17.40
2019-03-27T19:46:14.522Z,17.10
2019-03-27T19:48:43.302Z,17.07
2019-03-27T19:51:12.051Z,17.50
2019-03-27T19:53:40.729Z,18.20
2019-03-27T19:56:09.131Z,19.57
2019-03-27T19:58:37.727Z,17.33
2019-03-27T20:01:07.014Z,18.07
2019-03-27T20:03:35.409Z,18.73
2019-03-27T20:06:03.922Z,17.40
2019-03-27T20:08:32.329Z,17.80
2019-03-27T20:11:00.815Z,17.43
2019-03-27T20:13:29.542Z,19.10
2019-03-27T20:15:57.933Z,18.40
2019-03-27T20:18:26.746Z,16.23
2019-03-27T20:20:55.646Z,17.30
2019-03-27T20:23:24.295Z,18.20
2019-03-27T20:25:53.100Z,19.20
2019-03-27T20:28:21.774Z,17.70
2019-03-27T20:30:50.470Z,19.10
2019-03-27T20:33:18.878Z,19.87
2019-03-27T20:35:47.300Z,18.33
2019-03-27T20:38:15.704Z,19.17
2019-03-27T20:40:44.111Z,17.63
2019-03-27T20:43:12.574Z,19.70
2019-03-27T20:45:41.275Z,16.80
2019-03-27T20:48:09.922Z,17.27
2019-03-27T20:50:38.341Z,20.00
2019-03-27T20:53:06.733Z,18.60
2019-03-27T20:55:35.421Z,18.20
2019-03-27T20:58:03.850Z,18.70
2019-03-27T21:00:32.269Z,18.10
2019-03-27T21:03:00.697Z,17.93
2019-03-27T21:05:29.118Z,19.17
2019-03-27T21:07:57.515Z,19.20
2019-03-27T21:10:25.917Z,19.07
2019-03-27T21:12:54.627Z,20.50
2019-03-27T21:15:23.302Z,19.10
2019-03-27T21:17:51.706Z,21.90
2019-03-27T21:20:20.600Z,19.60
2019-03-27T21:22:49.296Z,18.63
2019-03-27T21:25:18.027Z,19.87
2019-03-27T21:27:46.479Z,19.90
2019-03-27T21:30:16.763Z,18.23
2019-03-27T21:32:45.397Z,20.00
2019-03-27T21:35:14.062Z,20.60
2019-03-27T21:37:42.555Z,20.57
2019-03-27T21:40:11.306Z,19.70
2019-03-27T21:42:39.708Z,19.53
2019-03-27T21:45:10.861Z,20.27
2019-03-27T21:47:39.241Z,19.43
2019-03-27T21:50:08.703Z,19.80
2019-03-27T21:52:37.150Z,20.47
2019-03-27T21:55:07.041Z,18.03
2019-03-27T21:57:36.773Z,17.87
2019-03-27T22:00:06.320Z,19.40
2019-03-27T22:02:35.269Z,19.20
2019-03-27T22:05:04.350Z,19.67
2019-03-27T22:07:32.753Z,20.17
2019-03-27T22:10:02.851Z,20.47
2019-03-27T22:12:31.266Z,19.13
2019-03-27T22:14:59.655Z,19.43
2019-03-27T22:17:28.335Z,19.60
2019-03-27T22:19:56.942Z,19.30
2019-03-27T22:22:25.795Z,19.47
2019-03-27T22:24:54.199Z,20.90
2019-03-27T22:27:22.891Z,22.40
2019-03-27T22:29:51.408Z,22.00
2019-03-27T22:32:19.818Z,21.10
2019-03-27T22:34:48.261Z,23.37
2019-03-27T22:37:16.654Z,22.30
2019-03-27T22:39:45.049Z,23.07
2019-03-27T22:42:13.481Z,21.33
2019-03-27T22:44:41.891Z,33.17
2019-03-27T22:47:10.281Z,30.37
2019-03-27T22:49:38.699Z,27.00
2019-03-27T22:52:07.630Z,27.00
2019-03-27T22:54:36.029Z,24.87
2019-03-27T22:57:04.623Z,24.77
2019-03-27T22:59:33.010Z,22.20
2019-03-27T23:02:01.412Z,22.90
2019-03-27T23:04:29.834Z,23.83
2019-03-27T23:06:58.480Z,23.93
2019-03-27T23:09:26.966Z,25.43
2019-03-27T23:11:55.936Z,24.80
2019-03-27T23:14:24.481Z,23.97
2019-03-27T23:16:53.255Z,24.17
2019-03-27T23:19:22.368Z,24.47
2019-03-27T23:21:51.042Z,22.00
2019-03-27T23:24:20.439Z,25.50
2019-03-27T23:26:49.202Z,24.50
2019-03-27T23:29:17.601Z,26.47
2019-03-27T23:31:45.999Z,27.60
2019-03-27T23:34:14.753Z,26.40
2019-03-27T23:36:43.158Z,28.33
2019-03-27T23:39:11.557Z,30.30
2019-03-27T23:41:40.025Z,29.13
2019-03-27T23:44:08.416Z,27.20
2019-03-27T23:46:36.819Z,27.27
2019-03-27T23:49:05.666Z,26.60
2019-03-27T23:51:34.068Z,24.80
2019-03-27T23:54:03.124Z,26.40
2019-03-27T23:56:31.561Z,26.67
2019-03-27T23:59:00.221Z,27.90
